X-preSS Vesuvio — 9HA3961 — position and weather

sailwx.info

Track history (hours):
 
Tides and Currents Weather Stations Pressure Air Temp Water Temp Dewpoint Dewpoint Depression Visibility Wind Speed Wind Dir Waves Ship Positions

X-preSS Vesuvio

Last reported at 2018-Feb-15 11:35 UTC. Time now 2018-Feb-19 14:17 UTC.
Position N 37°10' W 001°09'.

Length 134 m; draft 7.2 m.

Type: Ship. MMSI: 256601000.

Date/timePositionNaut miles runAvg speedWind from/ knotsBaromVisibWave heightAir tempDewpointWater temp
2018-Feb-15 11:35N 37°10' W 001°09'613.9
2018-Feb-15 11:10N 37°15' W 001°03'214.0
2018-Feb-15 11:00N 37°16' W 001°01'714.0
2018-Feb-15 10:30N 37°21' W 000°55'713.8
2018-Feb-15 10:01N 37°25' W 000°48'713.7
2018-Feb-15 09:30N 37°30' W 000°41'612.8
2018-Feb-15 09:00N 37°34' W 000°35'611.3
2018-Feb-15 08:31N 37°38' W 000°31'611.5
2018-Feb-15 08:01N 37°43' W 000°27'611.9
2018-Feb-15 07:30N 37°48' W 000°23'510.4
2018-Feb-15 06:59N 37°52' W 000°19'510.2
2018-Feb-15 06:29N 37°57' W 000°15'510.2
2018-Feb-15 06:00N 38°01' W 000°12'19811.0
2018-Feb-14 11:55N 40°54' E 001°51'511.2
2018-Feb-14 11:31N 40°58' E 001°55'611.3
2018-Feb-14 11:01N 41°03' E 001°59'611.5
2018-Feb-14 10:31N 41°08' E 002°03'611.5
2018-Feb-14 10:01N 41°13' E 002°07'611.5
2018-Feb-14 09:31N 41°18' E 002°10'3 6.7
2018-Feb-14 09:00N 41°21' E 002°10'0 0.0
2018-Feb-14 08:29N 41°21' E 002°10'0 0.0
2018-Feb-14 07:59N 41°21' E 002°10'0 0.0
2018-Feb-14 07:29N 41°21' E 002°10'0 0.0
2018-Feb-14 06:56N 41°21' E 002°10'0 0.0
2018-Feb-14 06:28N 41°21' E 002°10'0 0.0
2018-Feb-14 05:58N 41°21' E 002°10'0 0.0
2018-Feb-14 05:28N 41°21' E 002°10'0 0.0
2018-Feb-14 04:52N 41°21' E 002°10'0 0.0
2018-Feb-14 04:21N 41°21' E 002°10'0 0.0
2018-Feb-14 04:00N 41°21' E 002°10'0 0.0
2018-Feb-14 03:30N 41°21' E 002°10'0 0.0
2018-Feb-14 03:00N 41°21' E 002°10'0 0.0
2018-Feb-14 02:30N 41°21' E 002°10'0 0.0
2018-Feb-14 01:59N 41°21' E 002°10'0 0.0
2018-Feb-14 01:29N 41°21' E 002°10'0 0.0
2018-Feb-14 00:59N 41°21' E 002°10'0 0.0
2018-Feb-14 00:29N 41°21' E 002°10'0 0.0
2018-Feb-13 23:59N 41°21' E 002°10'0 0.0
2018-Feb-13 23:28N 41°21' E 002°10'0 0.0
2018-Feb-13 22:58N 41°21' E 002°10'0 0.0
2018-Feb-13 22:28N 41°21' E 002°10'0 0.0
2018-Feb-13 21:52N 41°21' E 002°10'0 0.0
2018-Feb-13 21:31N 41°21' E 002°10'0 0.2
2018-Feb-13 21:00N 41°21' E 002°10'3 6.2
2018-Feb-13 20:30N 41°18' E 002°11'5 9.2
2018-Feb-13 20:00N 41°14' E 002°08'612.5
2018-Feb-13 19:30N 41°09' E 002°03'612.0
2018-Feb-13 19:00N 41°04' E 001°58'13112.5
2018-Feb-13 08:33N 39°34' W 000°06'112.8
2018-Feb-13 08:31N 39°33' W 000°07'712.7
2018-Feb-13 07:59N 39°29' W 000°13'510.7
2018-Feb-13 07:31N 39°26' W 000°19'1 1.6
2018-Feb-13 06:56N 39°27' W 000°19'0 0.0
2018-Feb-13 06:26N 39°27' W 000°19'0 0.0
2018-Feb-13 05:50N 39°27' W 000°19'0 0.0
2018-Feb-13 05:26N 39°27' W 000°19'0 0.0
2018-Feb-13 04:59N 39°27' W 000°19'0 0.0
2018-Feb-13 04:28N 39°27' W 000°19'0 0.0
2018-Feb-13 03:58N 39°27' W 000°19'0 0.0
2018-Feb-13 03:25N 39°27' W 000°19'0 0.0
2018-Feb-13 02:55N 39°27' W 000°19'0 0.0
2018-Feb-13 02:30N 39°27' W 000°19'0 0.0
2018-Feb-13 02:00N 39°27' W 000°19'0 0.0
2018-Feb-13 01:30N 39°27' W 000°19'0 0.0
2018-Feb-13 01:00N 39°27' W 000°19'0 0.0
2018-Feb-13 00:30N 39°27' W 000°19'0 0.0
2018-Feb-12 23:59N 39°27' W 000°19'0 0.0
2018-Feb-12 23:29N 39°27' W 000°19'0 0.0
2018-Feb-12 22:59N 39°27' W 000°19'0 0.0
2018-Feb-12 22:26N 39°27' W 000°19'0 0.0
2018-Feb-12 21:55N 39°27' W 000°19'0 0.0
2018-Feb-12 21:25N 39°27' W 000°19'0 0.0
2018-Feb-12 20:55N 39°27' W 000°19'0 0.0
2018-Feb-12 20:28N 39°27' W 000°19'0 0.0
2018-Feb-12 19:58N 39°27' W 000°19'0 0.0
2018-Feb-12 19:30N 39°27' W 000°19'0 0.0
2018-Feb-12 19:00N 39°27' W 000°19'0 0.0
2018-Feb-12 18:30N 39°27' W 000°19'0 0.0
2018-Feb-12 18:00N 39°27' W 000°19'1 0.4
2018-Feb-12 15:05N 39°26' W 000°19'0 0.0
2018-Feb-12 14:59N 39°26' W 000°19'0 0.0
2018-Feb-12 14:26N 39°26' W 000°19'0 0.0
2018-Feb-12 13:52N 39°26' W 000°19'0 0.0
2018-Feb-12 13:28N 39°26' W 000°19'0 0.0
2018-Feb-12 06:10N 39°26' W 000°19'0 0.0
2018-Feb-12 05:57N 39°26' W 000°19'0 0.6
2018-Feb-12 05:30N 39°26' W 000°19'3 6.2
2018-Feb-12 05:01N 39°25' W 000°15'79 9.0
2018-Feb-11 20:16N 38°07' W 000°02'310.3
2018-Feb-11 20:00N 38°05' W 000°04'712.7
2018-Feb-11 19:29N 37°59' W 000°09'815.0
2018-Feb-11 18:59N 37°53' W 000°14'1515.0
2018-Feb-11 17:57N 37°40' W 000°25'714.9
2018-Feb-11 17:30N 37°35' W 000°30'714.6
2018-Feb-11 17:00N 37°29' W 000°36'714.3
2018-Feb-11 16:30N 37°25' W 000°43'814.0
2018-Feb-11 15:57N 37°20' W 000°50'914.3
2018-Feb-11 15:19N 37°13' W 000°59'514.3
2018-Feb-11 14:59N 37°10' W 001°03'21113.9
2018-Feb-10 23:46N 36°02' W 005°12'416.7
2018-Feb-10 23:31N 36°02' W 005°17'714.1
2018-Feb-10 23:00N 36°07' W 005°24'2 3.2
2018-Feb-10 22:30N 36°08' W 005°25'0 0.0
2018-Feb-10 21:58N 36°08' W 005°25'0 0.0
2018-Feb-10 21:28N 36°08' W 005°25'0 0.0
2018-Feb-10 20:58N 36°08' W 005°25'0 0.0
2018-Feb-10 20:28N 36°08' W 005°25'0 0.0
2018-Feb-10 20:00N 36°08' W 005°25'0 0.0
2018-Feb-10 19:30N 36°08' W 005°25'0 0.0
2018-Feb-10 19:00N 36°08' W 005°25'0 0.0
2018-Feb-10 18:18N 36°08' W 005°25'0 0.0
2018-Feb-10 17:59N 36°08' W 005°25'0 0.0
2018-Feb-10 17:20N 36°08' W 005°25'0 0.0
2018-Feb-10 16:56N 36°08' W 005°25'0 0.0
2018-Feb-10 16:23N 36°08' W 005°25'0 0.0
2018-Feb-10 15:59N 36°08' W 005°25'0 0.0
2018-Feb-10 15:25N 36°08' W 005°25'0 1.0
2018-Feb-10 15:00N 36°08' W 005°25'2 3.5
2018-Feb-10 14:29N 36°10' W 005°25'0 0.0
2018-Feb-10 13:56N 36°10' W 005°25'0 0.0
2018-Feb-10 13:29N 36°10' W 005°25'0 0.0
2018-Feb-10 12:59N 36°10' W 005°25'0 0.0
2018-Feb-10 12:16N 36°10' W 005°25'0 0.1
2018-Feb-10 11:58N 36°10' W 005°25'0 0.0
2018-Feb-10 11:22N 36°10' W 005°25'0 0.0
2018-Feb-10 10:58N 36°10' W 005°25'0 0.0
2018-Feb-10 10:18N 36°10' W 005°25'0 0.0
2018-Feb-10 09:45N 36°10' W 005°25'0 0.1
2018-Feb-10 09:30N 36°10' W 005°25'0 0.0
2018-Feb-10 08:42N 36°10' W 005°25'0 0.0
2018-Feb-10 08:18N 36°10' W 005°25'0 0.1
2018-Feb-10 07:59N 36°10' W 005°25'0 0.0
2018-Feb-10 06:44N 36°10' W 005°25'0 0.0
2018-Feb-10 06:17N 36°10' W 005°25'0 0.0
2018-Feb-10 05:56N 36°10' W 005°25'0 0.0
2018-Feb-10 04:31N 36°10' W 005°25'0 0.0
2018-Feb-10 04:25N 36°10' W 005°25'0 0.0
2018-Feb-10 03:58N 36°10' W 005°25'0 0.0
2018-Feb-10 03:31N 36°10' W 005°25'0 0.0
2018-Feb-10 03:00N 36°10' W 005°25'0 0.0
2018-Feb-10 02:30N 36°10' W 005°25'0 0.0
2018-Feb-10 02:00N 36°10' W 005°25'0 0.0
2018-Feb-10 01:30N 36°10' W 005°25'0 0.0
2018-Feb-10 00:59N 36°10' W 005°25'0 0.0
2018-Feb-10 00:23N 36°10' W 005°25'0 0.1
2018-Feb-09 23:56N 36°10' W 005°25'0 0.0
2018-Feb-09 23:26N 36°10' W 005°25'0 0.0
2018-Feb-09 23:01N 36°10' W 005°25'0 0.1
2018-Feb-09 22:46N 36°10' W 005°25'0 0.0
2018-Feb-09 22:30N 36°10' W 005°25'2 4.1
2018-Feb-09 22:00N 36°08' W 005°24'7 7.0
2018-Feb-09 21:00N 36°04' W 005°17'2 1.3
2018-Feb-09 19:31N 36°06' W 005°15'1 1.3
2018-Feb-09 18:30N 36°05' W 005°17'1 1.5
2018-Feb-09 18:00N 36°05' W 005°17'1 1.6
2018-Feb-09 17:30N 36°04' W 005°18'1 2.4
2018-Feb-09 17:00N 36°03' W 005°19'3 5.5
2018-Feb-09 16:31N 36°02' W 005°22'510.9
2018-Feb-09 16:00N 35°58' W 005°27'  
2018-Feb-06 16:21N 37°36' W 009°33'614.1
2018-Feb-06 15:56N 37°42' W 009°32'1214.6
2018-Feb-06 15:07N 37°54' W 009°30'215.0
2018-Feb-06 15:00N 37°56' W 009°30'1514.7
2018-Feb-06 14:00N 38°10' W 009°27'714.8
2018-Feb-06 13:30N 38°18' W 009°26'1514.7
2018-Feb-06 12:30N 38°32' W 009°24'714.3
2018-Feb-06 12:00N 38°39' W 009°20'713.9
2018-Feb-06 11:29N 38°41' W 009°12'0 0.0
2018-Feb-06 10:46N 38°41' W 009°12'0 0.0
2018-Feb-06 10:13N 38°41' W 009°12'0 0.1
2018-Feb-06 09:58N 38°41' W 009°12'0 0.0
2018-Feb-06 09:24N 38°41' W 009°12'0 0.0
2018-Feb-06 08:39N 38°41' W 009°12'0 0.0
2018-Feb-06 08:15N 38°41' W 009°12'0 0.1
2018-Feb-06 07:49N 38°41' W 009°12'0 0.0
2018-Feb-06 07:18N 38°41' W 009°11'0 0.2
2018-Feb-06 06:59N 38°41' W 009°11'0 0.1
2018-Feb-06 06:17N 38°41' W 009°11'0 0.0
2018-Feb-06 05:59N 38°41' W 009°11'0 0.0
2018-Feb-06 04:31N 38°41' W 009°11'0 0.0
2018-Feb-06 04:25N 38°41' W 009°11'0 0.0
2018-Feb-06 03:58N 38°41' W 009°11'0 0.0
2018-Feb-06 03:25N 38°41' W 009°11'0 0.1
2018-Feb-06 02:00N 38°41' W 009°11'0 0.0
2018-Feb-06 01:30N 38°41' W 009°11'0 0.7
2018-Feb-06 01:00N 38°41' W 009°11'1 1.4
2018-Feb-06 00:11N 38°42' W 009°10'0 0.0
2018-Feb-05 23:56N 38°42' W 009°10'0 0.0
2018-Feb-05 23:25N 38°42' W 009°10'0 0.0
2018-Feb-05 22:43N 38°42' W 009°10'0 0.0
2018-Feb-05 22:19N 38°42' W 009°10'0 0.0
2018-Feb-05 21:55N 38°42' W 009°10'0 0.0
2018-Feb-05 20:45N 38°42' W 009°10'0 0.0
2018-Feb-05 20:30N 38°42' W 009°10'0 0.0
2018-Feb-05 19:51N 38°42' W 009°10'0 0.0
2018-Feb-05 19:24N 38°42' W 009°10'0 0.0
2018-Feb-05 18:50N 38°42' W 009°10'0 0.0
2018-Feb-05 18:29N 38°42' W 009°10'0 0.0
2018-Feb-05 17:59N 38°42' W 009°10'0 0.0
2018-Feb-05 17:11N 38°42' W 009°10'0 0.0
2018-Feb-05 16:52N 38°42' W 009°10'0 0.0
2018-Feb-05 16:22N 38°42' W 009°10'0 0.0
2018-Feb-05 15:43N 38°42' W 009°10'0 0.0
2018-Feb-05 15:10N 38°42' W 009°10'0 0.0
2018-Feb-05 14:43N 38°42' W 009°10'0 0.0
2018-Feb-05 14:30N 38°42' W 009°10'0 0.0
2018-Feb-05 13:09N 38°42' W 009°10'0 0.0
2018-Feb-05 12:39N 38°42' W 009°10'0 0.0
2018-Feb-05 12:27N 38°42' W 009°10'  
Track history (hours):
 
Tides and Currents Weather Stations Pressure Air Temp Water Temp Dewpoint Dewpoint Depression Visibility Wind Speed Wind Dir Waves Ship Positions

X-preSS Vesuvio

Last reported at 2018-Feb-15 11:35 UTC. Time now 2018-Feb-19 14:17 UTC.
Position N 37°10' W 001°09'.

Length 134 m; draft 7.2 m.

Type: Ship. MMSI: 256601000.

Date/timePositionNaut miles runAvg speedWind from/ knotsBaromVisibWave heightAir tempDewpointWater temp
2018-Feb-15 11:35N 37°10' W 001°09'613.9
2018-Feb-15 11:10N 37°15' W 001°03'214.0
2018-Feb-15 11:00N 37°16' W 001°01'714.0
2018-Feb-15 10:30N 37°21' W 000°55'713.8
2018-Feb-15 10:01N 37°25' W 000°48'713.7
2018-Feb-15 09:30N 37°30' W 000°41'612.8
2018-Feb-15 09:00N 37°34' W 000°35'611.3
2018-Feb-15 08:31N 37°38' W 000°31'611.5
2018-Feb-15 08:01N 37°43' W 000°27'611.9
2018-Feb-15 07:30N 37°48' W 000°23'510.4
2018-Feb-15 06:59N 37°52' W 000°19'510.2
2018-Feb-15 06:29N 37°57' W 000°15'510.2
2018-Feb-15 06:00N 38°01' W 000°12'19811.0
2018-Feb-14 11:55N 40°54' E 001°51'511.2
2018-Feb-14 11:31N 40°58' E 001°55'611.3
2018-Feb-14 11:01N 41°03' E 001°59'611.5
2018-Feb-14 10:31N 41°08' E 002°03'611.5
2018-Feb-14 10:01N 41°13' E 002°07'611.5
2018-Feb-14 09:31N 41°18' E 002°10'3 6.7
2018-Feb-14 09:00N 41°21' E 002°10'0 0.0
2018-Feb-14 08:29N 41°21' E 002°10'0 0.0
2018-Feb-14 07:59N 41°21' E 002°10'0 0.0
2018-Feb-14 07:29N 41°21' E 002°10'0 0.0
2018-Feb-14 06:56N 41°21' E 002°10'0 0.0
2018-Feb-14 06:28N 41°21' E 002°10'0 0.0
2018-Feb-14 05:58N 41°21' E 002°10'0 0.0
2018-Feb-14 05:28N 41°21' E 002°10'0 0.0
2018-Feb-14 04:52N 41°21' E 002°10'0 0.0
2018-Feb-14 04:21N 41°21' E 002°10'0 0.0
2018-Feb-14 04:00N 41°21' E 002°10'0 0.0
2018-Feb-14 03:30N 41°21' E 002°10'0 0.0
2018-Feb-14 03:00N 41°21' E 002°10'0 0.0
2018-Feb-14 02:30N 41°21' E 002°10'0 0.0
2018-Feb-14 01:59N 41°21' E 002°10'0 0.0
2018-Feb-14 01:29N 41°21' E 002°10'0 0.0
2018-Feb-14 00:59N 41°21' E 002°10'0 0.0
2018-Feb-14 00:29N 41°21' E 002°10'0 0.0
2018-Feb-13 23:59N 41°21' E 002°10'0 0.0
2018-Feb-13 23:28N 41°21' E 002°10'0 0.0
2018-Feb-13 22:58N 41°21' E 002°10'0 0.0
2018-Feb-13 22:28N 41°21' E 002°10'0 0.0
2018-Feb-13 21:52N 41°21' E 002°10'0 0.0
2018-Feb-13 21:31N 41°21' E 002°10'0 0.2
2018-Feb-13 21:00N 41°21' E 002°10'3 6.2
2018-Feb-13 20:30N 41°18' E 002°11'5 9.2
2018-Feb-13 20:00N 41°14' E 002°08'612.5
2018-Feb-13 19:30N 41°09' E 002°03'612.0
2018-Feb-13 19:00N 41°04' E 001°58'13112.5
2018-Feb-13 08:33N 39°34' W 000°06'112.8
2018-Feb-13 08:31N 39°33' W 000°07'712.7
2018-Feb-13 07:59N 39°29' W 000°13'510.7
2018-Feb-13 07:31N 39°26' W 000°19'1 1.6
2018-Feb-13 06:56N 39°27' W 000°19'0 0.0
2018-Feb-13 06:26N 39°27' W 000°19'0 0.0
2018-Feb-13 05:50N 39°27' W 000°19'0 0.0
2018-Feb-13 05:26N 39°27' W 000°19'0 0.0
2018-Feb-13 04:59N 39°27' W 000°19'0 0.0
2018-Feb-13 04:28N 39°27' W 000°19'0 0.0
2018-Feb-13 03:58N 39°27' W 000°19'0 0.0
2018-Feb-13 03:25N 39°27' W 000°19'0 0.0
2018-Feb-13 02:55N 39°27' W 000°19'0 0.0
2018-Feb-13 02:30N 39°27' W 000°19'0 0.0
2018-Feb-13 02:00N 39°27' W 000°19'0 0.0
2018-Feb-13 01:30N 39°27' W 000°19'0 0.0
2018-Feb-13 01:00N 39°27' W 000°19'0 0.0
2018-Feb-13 00:30N 39°27' W 000°19'0 0.0
2018-Feb-12 23:59N 39°27' W 000°19'0 0.0
2018-Feb-12 23:29N 39°27' W 000°19'0 0.0
2018-Feb-12 22:59N 39°27' W 000°19'0 0.0
2018-Feb-12 22:26N 39°27' W 000°19'0 0.0
2018-Feb-12 21:55N 39°27' W 000°19'0 0.0
2018-Feb-12 21:25N 39°27' W 000°19'0 0.0
2018-Feb-12 20:55N 39°27' W 000°19'0 0.0
2018-Feb-12 20:28N 39°27' W 000°19'0 0.0
2018-Feb-12 19:58N 39°27' W 000°19'0 0.0
2018-Feb-12 19:30N 39°27' W 000°19'0 0.0
2018-Feb-12 19:00N 39°27' W 000°19'0 0.0
2018-Feb-12 18:30N 39°27' W 000°19'0 0.0
2018-Feb-12 18:00N 39°27' W 000°19'1 0.4
2018-Feb-12 15:05N 39°26' W 000°19'0 0.0
2018-Feb-12 14:59N 39°26' W 000°19'0 0.0
2018-Feb-12 14:26N 39°26' W 000°19'0 0.0
2018-Feb-12 13:52N 39°26' W 000°19'0 0.0
2018-Feb-12 13:28N 39°26' W 000°19'0 0.0
2018-Feb-12 06:10N 39°26' W 000°19'0 0.0
2018-Feb-12 05:57N 39°26' W 000°19'0 0.6
2018-Feb-12 05:30N 39°26' W 000°19'3 6.2
2018-Feb-12 05:01N 39°25' W 000°15'79 9.0
2018-Feb-11 20:16N 38°07' W 000°02'310.3
2018-Feb-11 20:00N 38°05' W 000°04'712.7
2018-Feb-11 19:29N 37°59' W 000°09'815.0
2018-Feb-11 18:59N 37°53' W 000°14'1515.0
2018-Feb-11 17:57N 37°40' W 000°25'714.9
2018-Feb-11 17:30N 37°35' W 000°30'714.6
2018-Feb-11 17:00N 37°29' W 000°36'714.3
2018-Feb-11 16:30N 37°25' W 000°43'814.0
2018-Feb-11 15:57N 37°20' W 000°50'914.3
2018-Feb-11 15:19N 37°13' W 000°59'514.3
2018-Feb-11 14:59N 37°10' W 001°03'21113.9
2018-Feb-10 23:46N 36°02' W 005°12'416.7
2018-Feb-10 23:31N 36°02' W 005°17'714.1
2018-Feb-10 23:00N 36°07' W 005°24'2 3.2
2018-Feb-10 22:30N 36°08' W 005°25'0 0.0
2018-Feb-10 21:58N 36°08' W 005°25'0 0.0
2018-Feb-10 21:28N 36°08' W 005°25'0 0.0
2018-Feb-10 20:58N 36°08' W 005°25'0 0.0
2018-Feb-10 20:28N 36°08' W 005°25'0 0.0
2018-Feb-10 20:00N 36°08' W 005°25'0 0.0
2018-Feb-10 19:30N 36°08' W 005°25'0 0.0
2018-Feb-10 19:00N 36°08' W 005°25'0 0.0
2018-Feb-10 18:18N 36°08' W 005°25'0 0.0
2018-Feb-10 17:59N 36°08' W 005°25'0 0.0
2018-Feb-10 17:20N 36°08' W 005°25'0 0.0
2018-Feb-10 16:56N 36°08' W 005°25'0 0.0
2018-Feb-10 16:23N 36°08' W 005°25'0 0.0
2018-Feb-10 15:59N 36°08' W 005°25'0 0.0
2018-Feb-10 15:25N 36°08' W 005°25'0 1.0
2018-Feb-10 15:00N 36°08' W 005°25'2 3.5
2018-Feb-10 14:29N 36°10' W 005°25'0 0.0
2018-Feb-10 13:56N 36°10' W 005°25'0 0.0
2018-Feb-10 13:29N 36°10' W 005°25'0 0.0
2018-Feb-10 12:59N 36°10' W 005°25'0 0.0
2018-Feb-10 12:16N 36°10' W 005°25'0 0.1
2018-Feb-10 11:58N 36°10' W 005°25'0 0.0
2018-Feb-10 11:22N 36°10' W 005°25'0 0.0
2018-Feb-10 10:58N 36°10' W 005°25'0 0.0
2018-Feb-10 10:18N 36°10' W 005°25'0 0.0
2018-Feb-10 09:45N 36°10' W 005°25'0 0.1
2018-Feb-10 09:30N 36°10' W 005°25'0 0.0
2018-Feb-10 08:42N 36°10' W 005°25'0 0.0
2018-Feb-10 08:18N 36°10' W 005°25'0 0.1
2018-Feb-10 07:59N 36°10' W 005°25'0 0.0
2018-Feb-10 06:44N 36°10' W 005°25'0 0.0
2018-Feb-10 06:17N 36°10' W 005°25'0 0.0
2018-Feb-10 05:56N 36°10' W 005°25'0 0.0
2018-Feb-10 04:31N 36°10' W 005°25'0 0.0
2018-Feb-10 04:25N 36°10' W 005°25'0 0.0
2018-Feb-10 03:58N 36°10' W 005°25'0 0.0
2018-Feb-10 03:31N 36°10' W 005°25'0 0.0
2018-Feb-10 03:00N 36°10' W 005°25'0 0.0
2018-Feb-10 02:30N 36°10' W 005°25'0 0.0
2018-Feb-10 02:00N 36°10' W 005°25'0 0.0
2018-Feb-10 01:30N 36°10' W 005°25'0 0.0
2018-Feb-10 00:59N 36°10' W 005°25'0 0.0
2018-Feb-10 00:23N 36°10' W 005°25'0 0.1
2018-Feb-09 23:56N 36°10' W 005°25'0 0.0
2018-Feb-09 23:26N 36°10' W 005°25'0 0.0
2018-Feb-09 23:01N 36°10' W 005°25'0 0.1
2018-Feb-09 22:46N 36°10' W 005°25'0 0.0
2018-Feb-09 22:30N 36°10' W 005°25'2 4.1
2018-Feb-09 22:00N 36°08' W 005°24'7 7.0
2018-Feb-09 21:00N 36°04' W 005°17'2 1.3
2018-Feb-09 19:31N 36°06' W 005°15'1 1.3
2018-Feb-09 18:30N 36°05' W 005°17'1 1.5
2018-Feb-09 18:00N 36°05' W 005°17'1 1.6
2018-Feb-09 17:30N 36°04' W 005°18'1 2.4
2018-Feb-09 17:00N 36°03' W 005°19'3 5.5
2018-Feb-09 16:31N 36°02' W 005°22'510.9
2018-Feb-09 16:00N 35°58' W 005°27'  
2018-Feb-06 16:21N 37°36' W 009°33'614.1
2018-Feb-06 15:56N 37°42' W 009°32'1214.6
2018-Feb-06 15:07N 37°54' W 009°30'215.0
2018-Feb-06 15:00N 37°56' W 009°30'1514.7
2018-Feb-06 14:00N 38°10' W 009°27'714.8
2018-Feb-06 13:30N 38°18' W 009°26'1514.7
2018-Feb-06 12:30N 38°32' W 009°24'714.3
2018-Feb-06 12:00N 38°39' W 009°20'713.9
2018-Feb-06 11:29N 38°41' W 009°12'0 0.0
2018-Feb-06 10:46N 38°41' W 009°12'0 0.0
2018-Feb-06 10:13N 38°41' W 009°12'0 0.1
2018-Feb-06 09:58N 38°41' W 009°12'0 0.0
2018-Feb-06 09:24N 38°41' W 009°12'0 0.0
2018-Feb-06 08:39N 38°41' W 009°12'0 0.0
2018-Feb-06 08:15N 38°41' W 009°12'0 0.1
2018-Feb-06 07:49N 38°41' W 009°12'0 0.0
2018-Feb-06 07:18N 38°41' W 009°11'0 0.2
2018-Feb-06 06:59N 38°41' W 009°11'0 0.1
2018-Feb-06 06:17N 38°41' W 009°11'0 0.0
2018-Feb-06 05:59N 38°41' W 009°11'0 0.0
2018-Feb-06 04:31N 38°41' W 009°11'0 0.0
2018-Feb-06 04:25N 38°41' W 009°11'0 0.0
2018-Feb-06 03:58N 38°41' W 009°11'0 0.0
2018-Feb-06 03:25N 38°41' W 009°11'0 0.1
2018-Feb-06 02:00N 38°41' W 009°11'0 0.0
2018-Feb-06 01:30N 38°41' W 009°11'0 0.7
2018-Feb-06 01:00N 38°41' W 009°11'1 1.4
2018-Feb-06 00:11N 38°42' W 009°10'0 0.0
2018-Feb-05 23:56N 38°42' W 009°10'0 0.0
2018-Feb-05 23:25N 38°42' W 009°10'0 0.0
2018-Feb-05 22:43N 38°42' W 009°10'0 0.0
2018-Feb-05 22:19N 38°42' W 009°10'0 0.0
2018-Feb-05 21:55N 38°42' W 009°10'0 0.0
2018-Feb-05 20:45N 38°42' W 009°10'0 0.0
2018-Feb-05 20:30N 38°42' W 009°10'0 0.0
2018-Feb-05 19:51N 38°42' W 009°10'0 0.0
2018-Feb-05 19:24N 38°42' W 009°10'0 0.0
2018-Feb-05 18:50N 38°42' W 009°10'0 0.0
2018-Feb-05 18:29N 38°42' W 009°10'0 0.0
2018-Feb-05 17:59N 38°42' W 009°10'0 0.0
2018-Feb-05 17:11N 38°42' W 009°10'0 0.0
2018-Feb-05 16:52N 38°42' W 009°10'0 0.0
2018-Feb-05 16:22N 38°42' W 009°10'0 0.0
2018-Feb-05 15:43N 38°42' W 009°10'0 0.0
2018-Feb-05 15:10N 38°42' W 009°10'0 0.0
2018-Feb-05 14:43N 38°42' W 009°10'0 0.0
2018-Feb-05 14:30N 38°42' W 009°10'0 0.0
2018-Feb-05 13:09N 38°42' W 009°10'0 0.0
2018-Feb-05 12:39N 38°42' W 009°10'0 0.0
2018-Feb-05 12:27N 38°42' W 009°10'  

Dump ship's entire track history